Metar z pełnej godziny Komunikat METAR ze strony awiacja.imgw.pl Metar G00 EPGD METAR EPGD 230800Z 30020KT 9999 FEW041 07/M03 Q1016 =